Time;durP1;ratioP1;P1;durP2;ratioP2;P2;SDS_P1;SDS_P2;PMS_P1;PMS_P2;Temp;Humidity;BMP_temperature;BMP_pressure;BME280_temperature;BME280_humidity;BME280_pressure;Samples;Min_cycle;Max_cycle;Signal;HPM_P1;HPM_P2
2021/08/25 00:00:32;;;;;;;0.10;0.10;;;;;;;;;;5066484;28;20222;-69
2021/08/25 00:03:00;;;;;;;0.10;0.10;;;;;;;;;;5064336;28;20272;-69
2021/08/25 00:05:26;;;;;;;0.10;0.10;;;;;;;;;;5055840;28;20246;-69
2021/08/25 00:07:52;;;;;;;0.00;0.00;;;;;;;;;;5054032;28;20201;-69
2021/08/25 00:10:19;;;;;;;0.10;0.10;;;;;;;;;;5063444;28;20205;-69
2021/08/25 00:12:45;;;;;;;0.10;0.10;;;;;;;;;;5047481;28;20213;-69
2021/08/25 00:15:11;;;;;;;0.10;0.10;;;;;;;;;;5046679;28;20204;-70
2021/08/25 00:17:38;;;;;;;0.00;0.00;;;;;;;;;;5065726;28;20279;-70
2021/08/25 00:20:06;;;;;;;0.00;0.00;;;;;;;;;;5065414;28;20206;-68
2021/08/25 00:22:32;;;;;;;0.10;0.10;;;;;;;;;;5053442;28;20206;-68
2021/08/25 00:24:59;;;;;;;0.10;0.10;;;;;;;;;;5053565;28;20220;-69
2021/08/25 00:27:25;;;;;;;0.10;0.10;;;;;;;;;;5058907;28;20201;-68
2021/08/25 00:29:51;;;;;;;0.10;0.10;;;;;;;;;;5066787;28;20202;-68
2021/08/25 00:32:17;;;;;;;0.10;0.10;;;;;;;;;;5064518;28;20203;-70
2021/08/25 00:34:44;;;;;;;0.00;0.00;;;;;;;;;;5053746;28;20203;-68
2021/08/25 00:37:12;;;;;;;0.10;0.10;;;;;;;;;;5064808;28;20423;-68
2021/08/25 00:39:38;;;;;;;0.10;0.10;;;;;;;;;;5049211;28;20203;-68
2021/08/25 00:42:05;;;;;;;0.10;0.10;;;;;;;;;;5059731;28;20441;-69
2021/08/25 00:44:31;;;;;;;0.10;0.10;;;;;;;;;;5057109;28;20204;-68
2021/08/25 00:46:57;;;;;;;0.10;0.10;;;;;;;;;;5066332;28;20243;-68
2021/08/25 00:49:23;;;;;;;0.10;0.10;;;;;;;;;;5060520;28;20251;-68
2021/08/25 00:51:50;;;;;;;0.10;0.10;;;;;;;;;;5077125;28;20215;-70
2021/08/25 00:54:17;;;;;;;0.00;0.00;;;;;;;;;;5068787;28;20231;-70
2021/08/25 00:56:44;;;;;;;0.10;0.10;;;;;;;;;;5068447;28;20401;-69
2021/08/25 00:59:12;;;;;;;0.08;0.08;;;;;;;;;;5071633;28;20209;-69
2021/08/25 01:01:44;;;;;;;0.00;0.00;;;;;;;;;;5066037;28;20203;-69
2021/08/25 01:04:14;;;;;;;0.03;0.03;;;;;;;;;;5082275;28;20276;-69
2021/08/25 01:06:41;;;;;;;0.00;0.00;;;;;;;;;;5065784;28;20240;-69
2021/08/25 01:09:07;;;;;;;0.10;0.10;;;;;;;;;;5071233;28;20200;-69
2021/08/25 01:11:42;;;;;;;0.10;0.10;;;;;;;;;;5067593;28;20230;-70
2021/08/25 01:14:08;;;;;;;0.10;0.10;;;;;;;;;;5070871;28;20205;-68
2021/08/25 01:16:36;;;;;;;0.10;0.10;;;;;;;;;;5068666;28;20201;-68
2021/08/25 01:19:02;;;;;;;0.10;0.10;;;;;;;;;;5082937;28;20405;-69
2021/08/25 01:21:29;;;;;;;0.10;0.10;;;;;;;;;;5082673;28;20534;-70
2021/08/25 01:23:55;;;;;;;0.10;0.10;;;;;;;;;;5066584;28;20389;-70
2021/08/25 01:26:22;;;;;;;0.10;0.10;;;;;;;;;;5076219;28;20225;-68
2021/08/25 01:28:51;;;;;;;0.00;0.00;;;;;;;;;;5072395;28;20204;-69
2021/08/25 01:31:20;;;;;;;0.00;0.00;;;;;;;;;;5086508;28;20210;-69
2021/08/25 01:33:46;;;;;;;0.00;0.00;;;;;;;;;;5072155;28;20275;-68
2021/08/25 01:36:14;;;;;;;0.10;0.10;;;;;;;;;;5078906;28;20208;-70
2021/08/25 01:38:44;;;;;;;0.00;0.00;;;;;;;;;;5066272;28;20271;-68
2021/08/25 01:41:10;;;;;;;0.10;0.10;;;;;;;;;;5072208;28;20238;-70
2021/08/25 01:43:36;;;;;;;0.10;0.10;;;;;;;;;;5073623;28;20206;-68
2021/08/25 01:46:03;;;;;;;0.10;0.10;;;;;;;;;;5083838;28;20216;-75
2021/08/25 01:48:30;;;;;;;0.00;0.00;;;;;;;;;;5076156;28;20258;-74
2021/08/25 01:50:57;;;;;;;0.10;0.10;;;;;;;;;;5082772;28;20510;-73
2021/08/25 01:53:23;;;;;;;0.00;0.00;;;;;;;;;;5077742;28;20198;-74
2021/08/25 01:55:49;;;;;;;0.10;0.10;;;;;;;;;;5080673;28;20261;-73
2021/08/25 01:58:15;;;;;;;0.10;0.10;;;;;;;;;;5066309;28;20487;-74
2021/08/25 02:00:41;;;;;;;0.00;0.00;;;;;;;;;;5065921;28;20223;-73
2021/08/25 02:03:08;;;;;;;0.10;0.10;;;;;;;;;;5080111;28;20204;-74
2021/08/25 02:05:36;;;;;;;0.10;0.10;;;;;;;;;;5066278;28;20254;-75
2021/08/25 02:08:02;;;;;;;0.10;0.10;;;;;;;;;;5082935;28;20211;-75
2021/08/25 02:10:29;;;;;;;0.00;0.00;;;;;;;;;;5074720;28;20204;-73
2021/08/25 02:12:55;;;;;;;0.05;0.05;;;;;;;;;;5086738;28;20229;-74
2021/08/25 02:15:21;;;;;;;0.10;0.10;;;;;;;;;;5085445;28;20364;-75
2021/08/25 02:17:47;;;;;;;0.00;0.00;;;;;;;;;;5085691;28;20545;-73
2021/08/25 02:20:13;;;;;;;0.10;0.10;;;;;;;;;;5085438;28;20278;-74
2021/08/25 02:22:41;;;;;;;0.00;0.00;;;;;;;;;;5085637;28;20249;-73
2021/08/25 02:25:08;;;;;;;0.10;0.10;;;;;;;;;;5073479;28;20274;-73
2021/08/25 02:27:34;;;;;;;0.00;0.00;;;;;;;;;;5085375;28;20206;-74
2021/08/25 02:30:00;;;;;;;0.10;0.10;;;;;;;;;;5085683;28;20394;-74
2021/08/25 02:32:27;;;;;;;0.00;0.00;;;;;;;;;;5085314;28;20226;-73
2021/08/25 02:34:53;;;;;;;0.10;0.10;;;;;;;;;;5085005;28;20203;-73
2021/08/25 02:37:20;;;;;;;0.00;0.00;;;;;;;;;;5084608;28;20204;-73
2021/08/25 02:39:47;;;;;;;0.10;0.10;;;;;;;;;;5073552;28;20545;-73
2021/08/25 02:42:14;;;;;;;0.00;0.00;;;;;;;;;;5082289;28;20210;-73
2021/08/25 02:44:40;;;;;;;0.10;0.10;;;;;;;;;;5085061;28;20291;-73
2021/08/25 02:47:06;;;;;;;0.10;0.10;;;;;;;;;;5081099;28;20227;-74
2021/08/25 02:49:33;;;;;;;0.10;0.10;;;;;;;;;;5060765;28;20207;-74
2021/08/25 02:51:59;;;;;;;0.10;0.10;;;;;;;;;;5084572;28;20215;-74
2021/08/25 02:54:25;;;;;;;0.07;0.07;;;;;;;;;;5056679;28;20234;-74
2021/08/25 02:56:53;;;;;;;0.10;0.10;;;;;;;;;;5084999;28;20240;-74
2021/08/25 02:59:19;;;;;;;0.03;0.03;;;;;;;;;;5084383;28;20514;-71
2021/08/25 03:01:45;;;;;;;0.10;0.10;;;;;;;;;;5084056;28;20203;-73
2021/08/25 03:04:11;;;;;;;0.00;0.00;;;;;;;;;;5084499;28;20204;-74
2021/08/25 03:06:38;;;;;;;0.10;0.10;;;;;;;;;;5084332;28;20223;-74
2021/08/25 03:09:04;;;;;;;0.10;0.10;;;;;;;;;;5084632;28;20532;-73
2021/08/25 03:11:30;;;;;;;0.10;0.10;;;;;;;;;;5082200;28;20379;-74
2021/08/25 03:13:58;;;;;;;0.00;0.00;;;;;;;;;;5065044;28;20444;-74
2021/08/25 03:16:24;;;;;;;0.00;0.00;;;;;;;;;;5078275;28;20247;-73
2021/08/25 03:18:50;;;;;;;0.10;0.10;;;;;;;;;;5071828;28;20525;-76
2021/08/25 03:21:16;;;;;;;0.00;0.00;;;;;;;;;;5084314;28;20204;-75
2021/08/25 03:23:43;;;;;;;0.10;0.10;;;;;;;;;;5084514;28;20199;-74
2021/08/25 03:26:09;;;;;;;0.10;0.10;;;;;;;;;;5061523;28;20243;-74
2021/08/25 03:28:35;;;;;;;0.00;0.00;;;;;;;;;;5079043;28;20219;-74
2021/08/25 03:31:03;;;;;;;0.10;0.10;;;;;;;;;;5084155;28;20199;-74
2021/08/25 03:33:29;;;;;;;0.10;0.10;;;;;;;;;;5083917;28;20210;-74
2021/08/25 03:35:55;;;;;;;0.10;0.10;;;;;;;;;;5083738;28;20512;-74
2021/08/25 03:38:21;;;;;;;0.00;0.00;;;;;;;;;;5069949;28;20246;-74
2021/08/25 03:40:48;;;;;;;0.10;0.10;;;;;;;;;;5083910;28;20217;-74
2021/08/25 03:43:14;;;;;;;0.00;0.00;;;;;;;;;;5083540;28;20249;-74
2021/08/25 03:45:40;;;;;;;0.10;0.10;;;;;;;;;;5079506;28;20532;-74
2021/08/25 03:48:08;;;;;;;0.10;0.10;;;;;;;;;;5073664;28;20209;-74
2021/08/25 03:50:35;;;;;;;0.10;0.10;;;;;;;;;;5083634;28;20245;-74
2021/08/25 03:53:01;;;;;;;0.03;0.03;;;;;;;;;;5083753;28;20200;-73
2021/08/25 03:55:27;;;;;;;0.10;0.10;;;;;;;;;;5079782;28;20262;-73
2021/08/25 03:57:53;;;;;;;0.23;0.23;;;;;;;;;;5069512;28;20377;-73
2021/08/25 04:00:19;;;;;;;0.05;0.05;;;;;;;;;;5065724;28;20216;-73
2021/08/25 04:02:46;;;;;;;0.10;0.10;;;;;;;;;;5069346;28;20242;-73
2021/08/25 04:05:13;;;;;;;0.00;0.00;;;;;;;;;;5070098;28;20206;-74
2021/08/25 04:07:40;;;;;;;0.00;0.00;;;;;;;;;;5083476;28;20269;-73
2021/08/25 04:10:06;;;;;;;0.10;0.10;;;;;;;;;;5069367;28;20253;-73
2021/08/25 04:12:33;;;;;;;0.87;0.87;;;;;;;;;;5083694;28;20260;-73
2021/08/25 04:14:59;;;;;;;0.10;0.10;;;;;;;;;;5083604;28;20244;-74
2021/08/25 04:17:25;;;;;;;0.10;0.10;;;;;;;;;;5083884;28;20246;-74
2021/08/25 04:19:51;;;;;;;0.20;0.20;;;;;;;;;;5083466;28;20203;-74
2021/08/25 04:22:19;;;;;;;0.00;0.00;;;;;;;;;;5084010;28;20212;-74
2021/08/25 04:24:45;;;;;;;0.10;0.10;;;;;;;;;;5083990;28;20217;-73
2021/08/25 04:27:11;;;;;;;0.10;0.10;;;;;;;;;;5055743;28;20229;-74
2021/08/25 04:29:37;;;;;;;0.10;0.10;;;;;;;;;;5083876;28;20212;-75
2021/08/25 04:32:04;;;;;;;0.10;0.10;;;;;;;;;;5083675;28;20203;-74
2021/08/25 04:34:30;;;;;;;0.10;0.10;;;;;;;;;;5083548;28;20206;-75
2021/08/25 04:36:57;;;;;;;0.07;0.07;;;;;;;;;;5069767;28;20206;-74
2021/08/25 04:39:24;;;;;;;0.10;0.10;;;;;;;;;;5075350;28;20212;-75
2021/08/25 04:41:50;;;;;;;0.00;0.00;;;;;;;;;;5064230;28;20490;-74
2021/08/25 04:44:17;;;;;;;0.10;0.10;;;;;;;;;;5083639;28;20511;-75
2021/08/25 04:46:43;;;;;;;0.10;0.10;;;;;;;;;;5083872;28;20577;-75
2021/08/25 04:49:09;;;;;;;0.10;0.10;;;;;;;;;;5064636;28;20245;-75
2021/08/25 04:51:36;;;;;;;0.10;0.10;;;;;;;;;;5063692;28;20504;-75
2021/08/25 04:54:02;;;;;;;0.10;0.10;;;;;;;;;;5071496;28;20263;-75
2021/08/25 04:56:30;;;;;;;0.07;0.07;;;;;;;;;;5083983;28;20501;-74
2021/08/25 04:58:56;;;;;;;0.10;0.10;;;;;;;;;;5087130;28;20420;-73
2021/08/25 05:01:22;;;;;;;1.03;1.03;;;;;;;;;;5083700;28;20203;-74
2021/08/25 05:03:48;;;;;;;0.10;0.10;;;;;;;;;;5076743;28;20207;-73
2021/08/25 05:06:14;;;;;;;0.10;0.10;;;;;;;;;;5086173;28;20224;-73
2021/08/25 05:08:41;;;;;;;0.10;0.10;;;;;;;;;;5074524;28;20216;-74
2021/08/25 05:11:08;;;;;;;0.10;0.10;;;;;;;;;;5087078;28;20221;-74
2021/08/25 05:13:37;;;;;;;0.07;0.07;;;;;;;;;;5086648;28;20254;-73
2021/08/25 05:16:03;;;;;;;0.00;0.00;;;;;;;;;;5087092;28;20276;-75
2021/08/25 05:18:30;;;;;;;0.10;0.10;;;;;;;;;;5082212;28;20223;-73
2021/08/25 05:20:57;;;;;;;0.10;0.10;;;;;;;;;;5076703;28;20210;-73
2021/08/25 05:23:24;;;;;;;0.10;0.10;;;;;;;;;;5072149;28;20200;-74
2021/08/25 05:25:50;;;;;;;0.10;0.10;;;;;;;;;;5087014;28;20425;-73
2021/08/25 05:28:16;;;;;;;0.00;0.00;;;;;;;;;;5072234;28;20202;-73
2021/08/25 05:30:44;;;;;;;0.00;0.00;;;;;;;;;;5053586;28;20391;-74
2021/08/25 05:33:10;;;;;;;0.07;0.07;;;;;;;;;;5080321;28;20259;-74
2021/08/25 05:35:37;;;;;;;0.10;0.10;;;;;;;;;;5086586;28;20200;-74
2021/08/25 05:38:03;;;;;;;0.10;0.10;;;;;;;;;;5075766;28;20490;-75
2021/08/25 05:40:29;;;;;;;0.10;0.10;;;;;;;;;;5081132;28;20206;-74
2021/08/25 05:42:55;;;;;;;0.10;0.10;;;;;;;;;;5066801;28;20554;-74
2021/08/25 05:45:23;;;;;;;0.00;0.00;;;;;;;;;;5068046;28;20247;-74
2021/08/25 05:47:52;;;;;;;0.00;0.00;;;;;;;;;;5079059;28;20503;-74
2021/08/25 05:50:18;;;;;;;0.03;0.03;;;;;;;;;;5066354;28;20220;-73
2021/08/25 05:52:45;;;;;;;0.10;0.10;;;;;;;;;;5080570;28;20255;-75
2021/08/25 05:55:11;;;;;;;0.10;0.10;;;;;;;;;;5079049;28;20314;-74
2021/08/25 05:57:45;;;;;;;0.10;0.10;;;;;;;;;;5073003;28;20248;-73
2021/08/25 06:00:12;;;;;;;0.03;0.03;;;;;;;;;;5074269;28;20276;-74
2021/08/25 06:02:38;;;;;;;0.00;0.00;;;;;;;;;;5086835;28;20271;-74
2021/08/25 06:05:06;;;;;;;0.10;0.10;;;;;;;;;;5072982;28;20214;-74
2021/08/25 06:07:32;;;;;;;0.10;0.10;;;;;;;;;;5065044;28;20226;-72
2021/08/25 06:09:59;;;;;;;0.03;0.03;;;;;;;;;;5051883;28;20214;-74
2021/08/25 06:12:25;;;;;;;0.10;0.10;;;;;;;;;;5063383;28;20209;-73
2021/08/25 06:14:51;;;;;;;0.10;0.10;;;;;;;;;;5062950;28;20479;-72
2021/08/25 06:17:20;;;;;;;0.00;0.00;;;;;;;;;;5065692;28;20246;-71
2021/08/25 06:19:46;;;;;;;0.10;0.10;;;;;;;;;;5062807;28;20210;-70
2021/08/25 06:22:14;;;;;;;0.10;0.10;;;;;;;;;;5060733;28;20379;-72
2021/08/25 06:24:40;;;;;;;0.00;0.00;;;;;;;;;;5061643;28;20214;-73
2021/08/25 06:27:06;;;;;;;0.00;0.00;;;;;;;;;;5059419;28;20534;-74
2021/08/25 06:29:33;;;;;;;0.07;0.07;;;;;;;;;;5065545;28;20487;-72
2021/08/25 06:31:59;;;;;;;0.10;0.10;;;;;;;;;;5062337;28;20201;-73
2021/08/25 06:34:26;;;;;;;0.00;0.00;;;;;;;;;;5058865;28;20583;-74
2021/08/25 06:36:52;;;;;;;0.00;0.00;;;;;;;;;;5054364;28;20485;-74
2021/08/25 06:39:20;;;;;;;0.00;0.00;;;;;;;;;;5053901;28;20222;-74
2021/08/25 06:41:46;;;;;;;0.07;0.07;;;;;;;;;;5048642;28;20433;-73
2021/08/25 06:44:13;;;;;;;0.10;0.10;;;;;;;;;;5051711;28;20206;-73
2021/08/25 06:46:40;;;;;;;0.00;0.00;;;;;;;;;;5045893;28;20231;-72
2021/08/25 06:49:06;;;;;;;0.00;0.00;;;;;;;;;;5051343;28;20506;-70
2021/08/25 06:51:32;;;;;;;0.10;0.10;;;;;;;;;;5054594;28;20220;-73
2021/08/25 06:53:59;;;;;;;0.00;0.00;;;;;;;;;;5048327;28;20204;-73
2021/08/25 06:56:27;;;;;;;0.00;0.00;;;;;;;;;;5064426;28;20213;-73
2021/08/25 06:58:53;;;;;;;0.10;0.10;;;;;;;;;;5053859;28;20216;-74
2021/08/25 07:01:21;;;;;;;0.00;0.00;;;;;;;;;;5056435;28;20211;-73
2021/08/25 07:03:47;;;;;;;0.10;0.10;;;;;;;;;;5064477;28;20568;-73
2021/08/25 07:06:13;;;;;;;0.10;0.10;;;;;;;;;;5064413;28;20216;-73
2021/08/25 07:08:40;;;;;;;0.10;0.10;;;;;;;;;;5061590;28;20227;-74
2021/08/25 07:11:06;;;;;;;0.00;0.00;;;;;;;;;;5061310;28;20207;-74
2021/08/25 07:13:35;;;;;;;0.10;0.10;;;;;;;;;;5064028;28;20456;-73
2021/08/25 07:16:01;;;;;;;0.00;0.00;;;;;;;;;;5055821;28;20485;-73
2021/08/25 07:18:27;;;;;;;0.10;0.10;;;;;;;;;;5061603;28;20248;-73
2021/08/25 07:20:54;;;;;;;0.40;0.40;;;;;;;;;;5048813;28;20212;-72
2021/08/25 07:23:20;;;;;;;0.00;0.00;;;;;;;;;;5060143;28;20298;-73
2021/08/25 07:25:46;;;;;;;0.03;0.03;;;;;;;;;;5068348;28;20258;-72
2021/08/25 07:28:12;;;;;;;0.10;0.10;;;;;;;;;;5062227;28;20290;-72
2021/08/25 07:30:40;;;;;;;0.00;0.00;;;;;;;;;;5060952;28;20202;-73
2021/08/25 07:33:11;;;;;;;0.10;0.10;;;;;;;;;;5056287;28;20275;-73
2021/08/25 07:35:38;;;;;;;0.10;0.10;;;;;;;;;;5050919;28;20441;-72
2021/08/25 07:38:04;;;;;;;0.00;0.00;;;;;;;;;;5047070;28;20251;-72
2021/08/25 07:40:30;;;;;;;0.57;0.57;;;;;;;;;;5050418;28;20201;-71
2021/08/25 07:42:57;;;;;;;0.00;0.00;;;;;;;;;;5057366;28;20456;-74
2021/08/25 07:45:23;;;;;;;0.05;0.05;;;;;;;;;;5048234;28;20497;-74
2021/08/25 07:47:50;;;;;;;0.10;0.10;;;;;;;;;;5063332;28;20245;-72
2021/08/25 07:50:17;;;;;;;0.05;0.05;;;;;;;;;;5053147;28;20262;-73
2021/08/25 07:52:43;;;;;;;0.40;0.40;;;;;;;;;;5057277;28;20220;-72
2021/08/25 07:55:10;;;;;;;0.08;0.08;;;;;;;;;;5063547;28;20199;-73
2021/08/25 07:57:36;;;;;;;0.10;0.10;;;;;;;;;;5069848;28;20210;-72
2021/08/25 08:00:02;;;;;;;0.03;0.03;;;;;;;;;;5083673;28;20206;-74
2021/08/25 08:02:29;;;;;;;0.10;0.10;;;;;;;;;;5063519;28;20260;-73
2021/08/25 08:04:56;;;;;;;0.05;0.05;;;;;;;;;;5062092;28;20211;-74
2021/08/25 08:07:22;;;;;;;0.10;0.10;;;;;;;;;;5052457;28;20229;-73
2021/08/25 08:09:48;;;;;;;0.00;0.00;;;;;;;;;;5060446;28;20208;-73
2021/08/25 08:12:15;;;;;;;0.10;0.10;;;;;;;;;;5062768;28;20209;-73
2021/08/25 08:14:41;;;;;;;0.10;0.10;;;;;;;;;;5062900;28;20480;-73
2021/08/25 08:17:07;;;;;;;0.10;0.10;;;;;;;;;;5062539;28;20248;-73
2021/08/25 08:19:34;;;;;;;0.00;0.00;;;;;;;;;;5051018;28;20244;-73
2021/08/25 08:22:02;;;;;;;0.00;0.00;;;;;;;;;;5061997;28;20263;-74
2021/08/25 08:24:29;;;;;;;0.00;0.00;;;;;;;;;;5062974;28;20208;-74
2021/08/25 08:26:55;;;;;;;0.08;0.08;;;;;;;;;;5062266;28;20395;-72
2021/08/25 08:29:21;;;;;;;0.10;0.10;;;;;;;;;;5063040;28;20247;-73
2021/08/25 08:31:47;;;;;;;0.10;0.10;;;;;;;;;;5062553;28;20206;-73
2021/08/25 08:34:14;;;;;;;0.10;0.10;;;;;;;;;;5066924;28;20484;-73
2021/08/25 08:36:40;;;;;;;0.00;0.00;;;;;;;;;;5064222;28;20259;-73
2021/08/25 08:39:08;;;;;;;0.08;0.08;;;;;;;;;;5051732;28;20232;-73
2021/08/25 08:41:34;;;;;;;0.10;0.10;;;;;;;;;;5061963;28;20215;-73
2021/08/25 08:44:00;;;;;;;0.10;0.10;;;;;;;;;;5063858;28;20249;-73
2021/08/25 08:46:27;;;;;;;0.10;0.10;;;;;;;;;;5058532;28;20206;-74
2021/08/25 08:48:53;;;;;;;0.00;0.00;;;;;;;;;;5061519;28;20220;-74
2021/08/25 08:51:20;;;;;;;0.00;0.00;;;;;;;;;;5054713;28;20225;-73
2021/08/25 08:53:47;;;;;;;0.00;0.00;;;;;;;;;;5066678;28;20229;-74
2021/08/25 08:56:14;;;;;;;0.10;0.10;;;;;;;;;;5065796;28;20209;-74
2021/08/25 08:58:42;;;;;;;0.10;0.10;;;;;;;;;;5057403;28;20240;-72
2021/08/25 09:01:09;;;;;;;0.00;0.00;;;;;;;;;;5057675;28;20209;-73
2021/08/25 09:03:36;;;;;;;0.10;0.10;;;;;;;;;;5057580;28;20271;-73
2021/08/25 09:06:03;;;;;;;0.10;0.10;;;;;;;;;;5058055;28;20324;-74
2021/08/25 09:08:33;;;;;;;0.08;0.08;;;;;;;;;;5066396;28;20525;-73
2021/08/25 09:11:01;;;;;;;0.10;0.10;;;;;;;;;;5066987;28;20251;-74
2021/08/25 09:13:34;;;;;;;0.00;0.00;;;;;;;;;;5057384;28;20201;-74
2021/08/25 09:16:00;;;;;;;0.10;0.10;;;;;;;;;;5055353;28;20263;-74
2021/08/25 09:18:26;;;;;;;0.08;0.08;;;;;;;;;;5066680;28;20220;-74
2021/08/25 09:20:53;;;;;;;0.10;0.10;;;;;;;;;;5049293;28;20205;-74
2021/08/25 09:23:20;;;;;;;0.10;0.10;;;;;;;;;;5062247;28;20205;-74
2021/08/25 09:25:47;;;;;;;0.10;0.10;;;;;;;;;;5054921;28;20492;-74
2021/08/25 09:28:14;;;;;;;0.00;0.00;;;;;;;;;;5066602;28;20513;-73
2021/08/25 09:30:50;;;;;;;0.15;0.15;;;;;;;;;;5051146;28;20202;-72
2021/08/25 09:33:16;;;;;;;0.52;0.52;;;;;;;;;;5057607;28;20244;-73
2021/08/25 09:35:43;;;;;;;0.08;0.08;;;;;;;;;;5066421;28;20498;-73
2021/08/25 09:38:15;;;;;;;0.10;0.10;;;;;;;;;;5057029;28;20241;-73
2021/08/25 09:40:44;;;;;;;0.10;0.10;;;;;;;;;;5051788;28;20198;-73
2021/08/25 09:43:11;;;;;;;0.10;0.10;;;;;;;;;;5062872;28;20484;-73
2021/08/25 09:45:38;;;;;;;0.00;0.00;;;;;;;;;;5054176;28;20361;-73
2021/08/25 09:48:06;;;;;;;0.10;0.10;;;;;;;;;;5066112;28;20230;-74
2021/08/25 09:50:32;;;;;;;0.10;0.10;;;;;;;;;;5065720;28;20234;-73
2021/08/25 09:53:00;;;;;;;0.00;0.00;;;;;;;;;;5061688;28;20205;-74
2021/08/25 09:55:29;;;;;;;0.00;0.00;;;;;;;;;;5074875;28;20268;-74
2021/08/25 09:57:56;;;;;;;0.00;0.00;;;;;;;;;;5072067;28;20208;-74
2021/08/25 10:00:23;;;;;;;0.10;0.10;;;;;;;;;;5076693;28;20214;-74
2021/08/25 10:02:49;;;;;;;0.10;0.10;;;;;;;;;;5081386;28;20512;-73
2021/08/25 10:05:23;;;;;;;0.10;0.10;;;;;;;;;;5085948;28;20203;-74
2021/08/25 10:07:49;;;;;;;0.00;0.00;;;;;;;;;;5085864;28;20220;-74
2021/08/25 10:10:15;;;;;;;0.00;0.00;;;;;;;;;;5085965;28;20262;-73
2021/08/25 10:12:42;;;;;;;0.00;0.00;;;;;;;;;;5085645;28;20208;-73
2021/08/25 10:15:23;;;;;;;0.10;0.10;;;;;;;;;;5081067;28;20481;-73
2021/08/25 10:17:49;;;;;;;0.00;0.00;;;;;;;;;;5078044;28;20224;-73
2021/08/25 10:20:36;;;;;;;0.10;0.10;;;;;;;;;;5085528;28;20208;-73
2021/08/25 10:23:03;;;;;;;0.03;0.03;;;;;;;;;;5084690;28;20208;-73
2021/08/25 10:25:30;;;;;;;0.10;0.10;;;;;;;;;;5070792;28;20206;-73
2021/08/25 10:28:00;;;;;;;0.03;0.03;;;;;;;;;;5065089;28;20293;-73
2021/08/25 10:30:26;;;;;;;0.00;0.00;;;;;;;;;;5079353;28;20200;-73
2021/08/25 10:33:09;;;;;;;0.00;0.00;;;;;;;;;;5076279;28;20242;-76
2021/08/25 10:35:36;;;;;;;0.00;0.00;;;;;;;;;;5056620;28;20481;-74
2021/08/25 10:38:22;;;;;;;0.00;0.00;;;;;;;;;;5070945;28;20494;-73
2021/08/25 10:40:49;;;;;;;0.00;0.00;;;;;;;;;;5051442;28;20201;-74
2021/08/25 10:43:35;;;;;;;0.10;0.10;;;;;;;;;;5060155;28;20210;-73
2021/08/25 10:46:01;;;;;;;0.10;0.10;;;;;;;;;;5059191;28;20239;-72
2021/08/25 10:48:38;;;;;;;0.00;0.00;;;;;;;;;;5058058;28;20250;-72
2021/08/25 10:51:22;;;;;;;0.10;0.10;;;;;;;;;;5058170;28;20555;-73
2021/08/25 10:53:48;;;;;;;0.00;0.00;;;;;;;;;;5052984;28;20208;-73
2021/08/25 10:56:15;;;;;;;0.10;0.10;;;;;;;;;;5057591;28;20204;-73
2021/08/25 10:58:45;;;;;;;0.00;0.00;;;;;;;;;;5053426;28;20201;-73
2021/08/25 11:01:25;;;;;;;0.10;0.10;;;;;;;;;;5050412;28;20469;-73
2021/08/25 11:03:52;;;;;;;0.00;0.00;;;;;;;;;;5060792;28;20209;-73
2021/08/25 11:06:28;;;;;;;0.00;0.00;;;;;;;;;;5061498;28;20387;-74
2021/08/25 11:08:55;;;;;;;0.00;0.00;;;;;;;;;;5063828;28;20232;-73
2021/08/25 11:11:21;;;;;;;0.47;0.47;;;;;;;;;;5057508;28;20496;-75
2021/08/25 11:13:47;;;;;;;0.00;0.00;;;;;;;;;;5061044;28;20210;-74
2021/08/25 11:16:24;;;;;;;0.10;0.10;;;;;;;;;;5061359;28;20257;-74
2021/08/25 11:18:51;;;;;;;0.00;0.00;;;;;;;;;;5055408;28;20224;-75
2021/08/25 11:21:17;;;;;;;0.00;0.00;;;;;;;;;;5062755;28;20422;-75
2021/08/25 11:23:53;;;;;;;0.03;0.03;;;;;;;;;;5063197;28;20217;-75
2021/08/25 11:26:19;;;;;;;0.10;0.10;;;;;;;;;;5052856;28;20468;-75
2021/08/25 11:28:45;;;;;;;0.10;0.10;;;;;;;;;;5062328;28;20292;-74
2021/08/25 11:31:12;;;;;;;0.00;0.00;;;;;;;;;;5059021;28;20259;-76
2021/08/25 11:33:44;;;;;;;0.10;0.10;;;;;;;;;;5061276;28;20255;-75
2021/08/25 11:36:10;;;;;;;0.00;0.00;;;;;;;;;;5061661;28;20534;-74
2021/08/25 11:38:37;;;;;;;0.10;0.10;;;;;;;;;;5058202;28;20201;-73
2021/08/25 11:41:05;;;;;;;0.00;0.00;;;;;;;;;;5058422;28;20208;-74
2021/08/25 11:43:31;;;;;;;0.10;0.10;;;;;;;;;;5061948;28;20237;-76
2021/08/25 11:45:57;;;;;;;0.10;0.10;;;;;;;;;;5067082;28;20210;-75
2021/08/25 11:48:25;;;;;;;0.00;0.00;;;;;;;;;;5063007;28;20226;-74
2021/08/25 11:50:51;;;;;;;0.00;0.00;;;;;;;;;;5067239;28;20287;-74
2021/08/25 11:53:19;;;;;;;0.00;0.00;;;;;;;;;;5071085;28;20458;-75
2021/08/25 11:55:46;;;;;;;0.10;0.10;;;;;;;;;;5070481;28;20218;-75
2021/08/25 11:58:23;;;;;;;0.00;0.00;;;;;;;;;;5080030;28;20269;-73
2021/08/25 12:00:50;;;;;;;0.00;0.00;;;;;;;;;;5056175;28;20209;-74
2021/08/25 12:03:16;;;;;;;0.00;0.00;;;;;;;;;;5054568;28;20277;-75
2021/08/25 12:05:50;;;;;;;0.10;0.10;;;;;;;;;;5054550;28;20206;-74
2021/08/25 12:08:16;;;;;;;0.00;0.00;;;;;;;;;;5051499;28;20549;-75
2021/08/25 12:10:44;;;;;;;0.00;0.00;;;;;;;;;;5060666;28;20494;-76
2021/08/25 12:13:11;;;;;;;0.00;0.00;;;;;;;;;;5057049;28;20207;-75
2021/08/25 12:15:49;;;;;;;0.00;0.00;;;;;;;;;;5054497;28;20222;-77
2021/08/25 12:18:16;;;;;;;0.00;0.00;;;;;;;;;;5077327;28;20219;-76
2021/08/25 12:20:43;;;;;;;0.00;0.00;;;;;;;;;;5074027;28;20203;-74
2021/08/25 12:23:11;;;;;;;0.00;0.00;;;;;;;;;;5061621;28;20242;-76
2021/08/25 12:25:41;;;;;;;0.13;0.13;;;;;;;;;;5074800;28;20263;-76
2021/08/25 12:28:07;;;;;;;0.00;0.00;;;;;;;;;;5078092;28;20203;-77
2021/08/25 12:30:34;;;;;;;0.00;0.00;;;;;;;;;;5060293;28;20219;-74
2021/08/25 12:33:04;;;;;;;0.10;0.10;;;;;;;;;;5061995;28;20204;-76
2021/08/25 12:35:31;;;;;;;0.00;0.00;;;;;;;;;;5061277;28;20266;-75
2021/08/25 12:37:57;;;;;;;0.00;0.00;;;;;;;;;;5069677;28;20304;-75
2021/08/25 12:40:24;;;;;;;0.10;0.10;;;;;;;;;;5065140;28;20204;-76
2021/08/25 12:42:51;;;;;;;0.00;0.00;;;;;;;;;;5068550;28;20569;-75
2021/08/25 12:45:18;;;;;;;0.00;0.00;;;;;;;;;;5082211;28;20203;-75
2021/08/25 12:47:46;;;;;;;0.10;0.10;;;;;;;;;;5050696;28;20409;-75
2021/08/25 12:50:14;;;;;;;0.10;0.10;;;;;;;;;;5080773;28;20348;-75
2021/08/25 12:52:40;;;;;;;0.00;0.00;;;;;;;;;;5057957;28;20257;-75
2021/08/25 12:55:09;;;;;;;0.00;0.00;;;;;;;;;;5066694;28;20215;-75
2021/08/25 12:57:35;;;;;;;0.10;0.10;;;;;;;;;;5067822;28;20200;-75
2021/08/25 13:00:01;;;;;;;0.00;0.00;;;;;;;;;;5069166;28;20245;-74
2021/08/25 13:02:28;;;;;;;0.05;0.05;;;;;;;;;;5052850;28;20215;-74
2021/08/25 13:04:54;;;;;;;0.15;0.15;;;;;;;;;;5051556;28;20498;-73
2021/08/25 13:07:21;;;;;;;0.00;0.00;;;;;;;;;;5048837;28;20562;-73
2021/08/25 13:09:48;;;;;;;0.00;0.00;;;;;;;;;;5049851;28;20269;-73
2021/08/25 13:12:14;;;;;;;0.00;0.00;;;;;;;;;;5068679;28;20215;-72
2021/08/25 13:14:40;;;;;;;0.00;0.00;;;;;;;;;;5062135;28;20203;-73
2021/08/25 13:17:07;;;;;;;0.00;0.00;;;;;;;;;;5051466;28;20279;-73
2021/08/25 13:19:33;;;;;;;0.00;0.00;;;;;;;;;;5059377;28;20235;-73
2021/08/25 13:21:59;;;;;;;0.00;0.00;;;;;;;;;;5056368;28;20210;-71
2021/08/25 13:24:27;;;;;;;0.00;0.00;;;;;;;;;;5056092;28;20436;-72
2021/08/25 13:26:53;;;;;;;0.00;0.00;;;;;;;;;;5054527;28;20204;-71
2021/08/25 13:29:19;;;;;;;0.00;0.00;;;;;;;;;;5059022;28;20223;-71
2021/08/25 13:31:46;;;;;;;0.05;0.05;;;;;;;;;;5079124;28;20200;-71
2021/08/25 13:34:12;;;;;;;0.00;0.00;;;;;;;;;;5086758;28;20211;-71
2021/08/25 13:36:38;;;;;;;0.00;0.00;;;;;;;;;;5084448;28;20213;-71
2021/08/25 13:39:04;;;;;;;0.00;0.00;;;;;;;;;;5080628;28;20247;-72
2021/08/25 13:41:32;;;;;;;0.20;0.20;;;;;;;;;;5071104;28;20230;-72
2021/08/25 13:43:58;;;;;;;0.00;0.00;;;;;;;;;;5052194;28;20230;-72
2021/08/25 13:46:25;;;;;;;0.10;0.10;;;;;;;;;;5061105;28;20203;-70
2021/08/25 13:48:51;;;;;;;0.00;0.00;;;;;;;;;;5054031;28;20403;-73
2021/08/25 13:51:17;;;;;;;0.03;0.03;;;;;;;;;;5049606;28;20224;-72
2021/08/25 13:53:44;;;;;;;0.10;0.10;;;;;;;;;;5056449;28;20243;-72
2021/08/25 13:56:10;;;;;;;0.00;0.00;;;;;;;;;;5058432;28;20204;-72
2021/08/25 13:58:37;;;;;;;0.00;0.00;;;;;;;;;;5062803;28;20254;-73
2021/08/25 14:01:04;;;;;;;0.00;0.00;;;;;;;;;;5063001;28;20212;-72
2021/08/25 14:03:30;;;;;;;0.00;0.00;;;;;;;;;;5065412;28;20211;-72
2021/08/25 14:05:57;;;;;;;0.03;0.03;;;;;;;;;;5064912;28;20211;-72
2021/08/25 14:08:23;;;;;;;0.10;0.10;;;;;;;;;;5060928;28;20215;-69
2021/08/25 14:10:49;;;;;;;0.00;0.00;;;;;;;;;;5059234;28;20235;-71
2021/08/25 14:13:16;;;;;;;0.00;0.00;;;;;;;;;;5056792;28;20267;-70
2021/08/25 14:15:44;;;;;;;0.00;0.00;;;;;;;;;;5067433;28;20203;-72
2021/08/25 14:18:10;;;;;;;0.00;0.00;;;;;;;;;;5081038;28;20337;-70
2021/08/25 14:20:36;;;;;;;0.10;0.10;;;;;;;;;;5062837;28;20196;-72
2021/08/25 14:23:03;;;;;;;0.10;0.10;;;;;;;;;;5061370;28;20228;-72
2021/08/25 14:25:29;;;;;;;0.00;0.00;;;;;;;;;;5057925;28;20203;-71
2021/08/25 14:27:56;;;;;;;0.00;0.00;;;;;;;;;;5059526;28;20219;-70
2021/08/25 14:30:22;;;;;;;0.00;0.00;;;;;;;;;;5057423;28;20284;-71
2021/08/25 14:32:49;;;;;;;0.00;0.00;;;;;;;;;;5057515;28;20204;-73
2021/08/25 14:35:16;;;;;;;0.00;0.00;;;;;;;;;;5053735;28;20215;-69
2021/08/25 14:37:42;;;;;;;0.00;0.00;;;;;;;;;;5055223;28;20204;-71
2021/08/25 14:40:09;;;;;;;0.00;0.00;;;;;;;;;;5059034;28;20394;-71
2021/08/25 14:42:35;;;;;;;0.00;0.00;;;;;;;;;;5059913;28;20506;-70